sensor_id;sensor_type;location;lat;lon;timestamp;P1;durP1;ratioP1;P2;durP2;ratioP2
69783;SDS011;57054;51.978;4.498;2023-02-08T00:01:41;21.30;;;10.73;;
69783;SDS011;57054;51.978;4.498;2023-02-08T00:04:07;15.88;;;10.57;;
69783;SDS011;57054;51.978;4.498;2023-02-08T00:06:32;17.38;;;10.77;;
69783;SDS011;57054;51.978;4.498;2023-02-08T00:08:58;16.48;;;10.40;;
69783;SDS011;57054;51.978;4.498;2023-02-08T00:11:25;18.98;;;10.77;;
69783;SDS011;57054;51.978;4.498;2023-02-08T00:13:50;16.23;;;9.95;;
69783;SDS011;57054;51.978;4.498;2023-02-08T00:16:16;15.38;;;10.05;;
69783;SDS011;57054;51.978;4.498;2023-02-08T00:18:42;14.50;;;9.63;;
69783;SDS011;57054;51.978;4.498;2023-02-08T00:21:08;16.35;;;9.70;;
69783;SDS011;57054;51.978;4.498;2023-02-08T00:23:39;13.93;;;9.57;;
69783;SDS011;57054;51.978;4.498;2023-02-08T00:26:04;12.00;;;8.75;;
69783;SDS011;57054;51.978;4.498;2023-02-08T00:28:30;15.57;;;9.77;;
69783;SDS011;57054;51.978;4.498;2023-02-08T00:30:55;19.33;;;10.52;;
69783;SDS011;57054;51.978;4.498;2023-02-08T00:33:21;26.85;;;14.68;;
69783;SDS011;57054;51.978;4.498;2023-02-08T00:35:46;32.45;;;15.02;;
69783;SDS011;57054;51.978;4.498;2023-02-08T00:38:12;37.58;;;18.98;;
69783;SDS011;57054;51.978;4.498;2023-02-08T00:40:37;42.72;;;21.25;;
69783;SDS011;57054;51.978;4.498;2023-02-08T00:43:02;43.97;;;20.73;;
69783;SDS011;57054;51.978;4.498;2023-02-08T00:45:28;37.97;;;19.45;;
69783;SDS011;57054;51.978;4.498;2023-02-08T00:47:53;32.72;;;18.85;;
69783;SDS011;57054;51.978;4.498;2023-02-08T00:50:19;35.17;;;18.10;;
69783;SDS011;57054;51.978;4.498;2023-02-08T00:52:44;35.08;;;19.92;;
69783;SDS011;57054;51.978;4.498;2023-02-08T00:55:09;38.65;;;22.23;;
69783;SDS011;57054;51.978;4.498;2023-02-08T00:57:35;57.33;;;31.60;;
69783;SDS011;57054;51.978;4.498;2023-02-08T01:00:01;71.10;;;42.08;;
69783;SDS011;57054;51.978;4.498;2023-02-08T01:02:27;86.00;;;48.15;;
69783;SDS011;57054;51.978;4.498;2023-02-08T01:04:53;76.18;;;45.08;;
69783;SDS011;57054;51.978;4.498;2023-02-08T01:07:18;77.63;;;44.30;;
69783;SDS011;57054;51.978;4.498;2023-02-08T01:09:43;67.55;;;39.92;;
69783;SDS011;57054;51.978;4.498;2023-02-08T01:12:09;73.97;;;44.00;;
69783;SDS011;57054;51.978;4.498;2023-02-08T01:14:36;93.75;;;53.70;;
69783;SDS011;57054;51.978;4.498;2023-02-08T01:17:01;105.80;;;63.22;;
69783;SDS011;57054;51.978;4.498;2023-02-08T01:19:27;102.78;;;63.25;;
69783;SDS011;57054;51.978;4.498;2023-02-08T01:21:52;91.00;;;54.75;;
69783;SDS011;57054;51.978;4.498;2023-02-08T01:24:18;83.95;;;49.75;;
69783;SDS011;57054;51.978;4.498;2023-02-08T01:26:44;81.28;;;45.78;;
69783;SDS011;57054;51.978;4.498;2023-02-08T01:29:09;72.75;;;42.05;;
69783;SDS011;57054;51.978;4.498;2023-02-08T01:31:36;58.00;;;36.65;;
69783;SDS011;57054;51.978;4.498;2023-02-08T01:34:03;48.50;;;30.65;;
69783;SDS011;57054;51.978;4.498;2023-02-08T01:36:30;44.50;;;27.27;;
69783;SDS011;57054;51.978;4.498;2023-02-08T01:38:57;40.42;;;23.40;;
69783;SDS011;57054;51.978;4.498;2023-02-08T01:41:27;30.92;;;19.45;;
69783;SDS011;57054;51.978;4.498;2023-02-08T01:46:29;21.50;;;14.45;;
69783;SDS011;57054;51.978;4.498;2023-02-08T01:48:56;21.98;;;13.25;;
69783;SDS011;57054;51.978;4.498;2023-02-08T01:51:46;18.95;;;11.90;;
69783;SDS011;57054;51.978;4.498;2023-02-08T01:54:15;16.55;;;10.60;;
69783;SDS011;57054;51.978;4.498;2023-02-08T01:56:44;15.30;;;9.82;;
69783;SDS011;57054;51.978;4.498;2023-02-08T01:59:13;15.15;;;10.20;;
69783;SDS011;57054;51.978;4.498;2023-02-08T02:01:44;14.43;;;9.85;;
69783;SDS011;57054;51.978;4.498;2023-02-08T02:04:11;15.20;;;9.48;;
69783;SDS011;57054;51.978;4.498;2023-02-08T02:06:44;14.75;;;9.73;;
69783;SDS011;57054;51.978;4.498;2023-02-08T02:12:19;14.73;;;9.25;;
69783;SDS011;57054;51.978;4.498;2023-02-08T02:14:45;12.20;;;8.30;;
69783;SDS011;57054;51.978;4.498;2023-02-08T02:17:12;12.85;;;8.93;;
69783;SDS011;57054;51.978;4.498;2023-02-08T02:19:44;12.63;;;8.18;;
69783;SDS011;57054;51.978;4.498;2023-02-08T02:27:59;14.93;;;8.98;;
69783;SDS011;57054;51.978;4.498;2023-02-08T02:30:36;13.32;;;9.25;;
69783;SDS011;57054;51.978;4.498;2023-02-08T02:33:42;13.18;;;8.75;;
69783;SDS011;57054;51.978;4.498;2023-02-08T02:36:50;12.35;;;8.50;;
69783;SDS011;57054;51.978;4.498;2023-02-08T02:50:18;13.77;;;9.27;;
69783;SDS011;57054;51.978;4.498;2023-02-08T02:55:50;13.82;;;9.18;;
69783;SDS011;57054;51.978;4.498;2023-02-08T02:58:22;13.80;;;9.10;;
69783;SDS011;57054;51.978;4.498;2023-02-08T03:00:51;14.90;;;8.27;;
69783;SDS011;57054;51.978;4.498;2023-02-08T03:03:21;12.77;;;8.57;;
69783;SDS011;57054;51.978;4.498;2023-02-08T03:05:49;12.32;;;8.50;;
69783;SDS011;57054;51.978;4.498;2023-02-08T03:11:02;16.10;;;9.27;;
69783;SDS011;57054;51.978;4.498;2023-02-08T03:16:38;11.73;;;8.35;;
69783;SDS011;57054;51.978;4.498;2023-02-08T03:25:22;13.27;;;9.35;;
69783;SDS011;57054;51.978;4.498;2023-02-08T03:27:36;11.70;;;8.80;;
69783;SDS011;57054;51.978;4.498;2023-02-08T03:30:14;13.15;;;9.15;;
69783;SDS011;57054;51.978;4.498;2023-02-08T03:35:21;10.70;;;8.60;;
69783;SDS011;57054;51.978;4.498;2023-02-08T03:37:58;12.85;;;8.45;;
69783;SDS011;57054;51.978;4.498;2023-02-08T03:40:32;12.35;;;9.10;;
69783;SDS011;57054;51.978;4.498;2023-02-08T03:43:03;13.70;;;8.93;;
69783;SDS011;57054;51.978;4.498;2023-02-08T03:45:48;13.70;;;9.73;;
69783;SDS011;57054;51.978;4.498;2023-02-08T03:48:17;14.50;;;9.35;;
69783;SDS011;57054;51.978;4.498;2023-02-08T03:50:46;13.33;;;9.53;;
69783;SDS011;57054;51.978;4.498;2023-02-08T03:53:15;14.35;;;9.10;;
69783;SDS011;57054;51.978;4.498;2023-02-08T03:55:43;14.18;;;8.57;;
69783;SDS011;57054;51.978;4.498;2023-02-08T03:58:14;12.57;;;8.60;;
69783;SDS011;57054;51.978;4.498;2023-02-08T04:00:48;16.80;;;8.85;;
69783;SDS011;57054;51.978;4.498;2023-02-08T04:03:21;14.55;;;8.90;;
69783;SDS011;57054;51.978;4.498;2023-02-08T04:05:50;13.18;;;8.98;;
69783;SDS011;57054;51.978;4.498;2023-02-08T04:08:15;9.90;;;8.63;;
69783;SDS011;57054;51.978;4.498;2023-02-08T04:10:41;12.85;;;8.90;;
69783;SDS011;57054;51.978;4.498;2023-02-08T04:13:06;14.52;;;8.95;;
69783;SDS011;57054;51.978;4.498;2023-02-08T04:15:32;13.05;;;8.55;;
69783;SDS011;57054;51.978;4.498;2023-02-08T04:17:57;12.13;;;8.43;;
69783;SDS011;57054;51.978;4.498;2023-02-08T04:20:23;12.20;;;8.60;;
69783;SDS011;57054;51.978;4.498;2023-02-08T04:22:48;13.18;;;8.50;;
69783;SDS011;57054;51.978;4.498;2023-02-08T04:25:14;15.88;;;9.10;;
69783;SDS011;57054;51.978;4.498;2023-02-08T04:27:39;10.18;;;8.15;;
69783;SDS011;57054;51.978;4.498;2023-02-08T04:30:05;16.08;;;8.90;;
69783;SDS011;57054;51.978;4.498;2023-02-08T04:32:31;15.48;;;9.30;;
69783;SDS011;57054;51.978;4.498;2023-02-08T04:34:56;12.73;;;8.82;;
69783;SDS011;57054;51.978;4.498;2023-02-08T04:37:22;15.32;;;9.35;;
69783;SDS011;57054;51.978;4.498;2023-02-08T04:39:47;13.60;;;8.52;;
69783;SDS011;57054;51.978;4.498;2023-02-08T04:42:13;14.05;;;9.00;;
69783;SDS011;57054;51.978;4.498;2023-02-08T04:44:38;12.50;;;8.57;;
69783;SDS011;57054;51.978;4.498;2023-02-08T04:47:04;13.85;;;9.13;;
69783;SDS011;57054;51.978;4.498;2023-02-08T04:49:29;13.88;;;9.02;;
69783;SDS011;57054;51.978;4.498;2023-02-08T04:51:54;14.90;;;9.93;;
69783;SDS011;57054;51.978;4.498;2023-02-08T04:54:20;13.52;;;9.13;;
69783;SDS011;57054;51.978;4.498;2023-02-08T04:56:45;15.18;;;9.80;;
69783;SDS011;57054;51.978;4.498;2023-02-08T04:59:11;9.55;;;7.97;;
69783;SDS011;57054;51.978;4.498;2023-02-08T05:01:36;12.63;;;8.57;;
69783;SDS011;57054;51.978;4.498;2023-02-08T05:04:01;13.48;;;9.25;;
69783;SDS011;57054;51.978;4.498;2023-02-08T05:06:27;11.80;;;8.95;;
69783;SDS011;57054;51.978;4.498;2023-02-08T05:08:52;11.90;;;8.77;;
69783;SDS011;57054;51.978;4.498;2023-02-08T05:11:21;10.82;;;8.32;;
69783;SDS011;57054;51.978;4.498;2023-02-08T05:13:48;13.95;;;9.23;;
69783;SDS011;57054;51.978;4.498;2023-02-08T05:16:14;15.85;;;9.43;;
69783;SDS011;57054;51.978;4.498;2023-02-08T05:18:39;13.27;;;9.48;;
69783;SDS011;57054;51.978;4.498;2023-02-08T05:21:05;13.75;;;9.07;;
69783;SDS011;57054;51.978;4.498;2023-02-08T05:23:30;13.05;;;9.18;;
69783;SDS011;57054;51.978;4.498;2023-02-08T05:25:57;15.00;;;9.13;;
69783;SDS011;57054;51.978;4.498;2023-02-08T05:28:22;11.23;;;8.10;;
69783;SDS011;57054;51.978;4.498;2023-02-08T05:30:48;12.80;;;9.43;;
69783;SDS011;57054;51.978;4.498;2023-02-08T05:33:13;14.95;;;9.73;;
69783;SDS011;57054;51.978;4.498;2023-02-08T05:35:39;11.13;;;8.55;;
69783;SDS011;57054;51.978;4.498;2023-02-08T05:38:05;10.27;;;8.48;;
69783;SDS011;57054;51.978;4.498;2023-02-08T05:40:31;14.45;;;9.52;;
69783;SDS011;57054;51.978;4.498;2023-02-08T05:42:56;12.40;;;9.40;;
69783;SDS011;57054;51.978;4.498;2023-02-08T05:45:22;14.40;;;8.93;;
69783;SDS011;57054;51.978;4.498;2023-02-08T05:47:47;13.23;;;9.05;;
69783;SDS011;57054;51.978;4.498;2023-02-08T05:50:13;12.68;;;8.40;;
69783;SDS011;57054;51.978;4.498;2023-02-08T05:52:38;11.35;;;9.23;;
69783;SDS011;57054;51.978;4.498;2023-02-08T05:55:04;14.00;;;9.57;;
69783;SDS011;57054;51.978;4.498;2023-02-08T05:57:30;13.77;;;9.05;;
69783;SDS011;57054;51.978;4.498;2023-02-08T05:59:55;14.20;;;9.15;;
69783;SDS011;57054;51.978;4.498;2023-02-08T06:02:21;12.68;;;9.20;;
69783;SDS011;57054;51.978;4.498;2023-02-08T06:04:46;13.30;;;9.10;;
69783;SDS011;57054;51.978;4.498;2023-02-08T06:07:12;11.80;;;8.77;;
69783;SDS011;57054;51.978;4.498;2023-02-08T06:09:37;12.18;;;8.65;;
69783;SDS011;57054;51.978;4.498;2023-02-08T06:12:03;11.75;;;8.43;;
69783;SDS011;57054;51.978;4.498;2023-02-08T06:14:29;12.32;;;8.70;;
69783;SDS011;57054;51.978;4.498;2023-02-08T06:16:54;14.52;;;8.00;;
69783;SDS011;57054;51.978;4.498;2023-02-08T06:19:20;11.55;;;8.63;;
69783;SDS011;57054;51.978;4.498;2023-02-08T06:21:45;11.55;;;8.65;;
69783;SDS011;57054;51.978;4.498;2023-02-08T06:24:10;12.60;;;9.52;;
69783;SDS011;57054;51.978;4.498;2023-02-08T06:26:37;11.55;;;8.55;;
69783;SDS011;57054;51.978;4.498;2023-02-08T06:29:03;12.18;;;8.65;;
69783;SDS011;57054;51.978;4.498;2023-02-08T06:31:28;11.30;;;8.52;;
69783;SDS011;57054;51.978;4.498;2023-02-08T06:33:54;14.25;;;8.43;;
69783;SDS011;57054;51.978;4.498;2023-02-08T06:36:19;12.05;;;9.07;;
69783;SDS011;57054;51.978;4.498;2023-02-08T06:38:45;14.45;;;9.13;;
69783;SDS011;57054;51.978;4.498;2023-02-08T06:41:10;10.48;;;8.43;;
69783;SDS011;57054;51.978;4.498;2023-02-08T06:43:36;13.63;;;9.48;;
69783;SDS011;57054;51.978;4.498;2023-02-08T06:46:01;13.73;;;9.20;;
69783;SDS011;57054;51.978;4.498;2023-02-08T06:48:32;12.77;;;8.52;;
69783;SDS011;57054;51.978;4.498;2023-02-08T06:50:58;12.77;;;8.73;;
69783;SDS011;57054;51.978;4.498;2023-02-08T06:53:23;11.25;;;8.48;;
69783;SDS011;57054;51.978;4.498;2023-02-08T06:55:49;10.93;;;8.55;;
69783;SDS011;57054;51.978;4.498;2023-02-08T06:58:15;12.77;;;9.00;;
69783;SDS011;57054;51.978;4.498;2023-02-08T07:00:41;11.68;;;8.65;;
69783;SDS011;57054;51.978;4.498;2023-02-08T07:03:09;12.25;;;9.02;;
69783;SDS011;57054;51.978;4.498;2023-02-08T07:05:35;14.98;;;9.35;;
69783;SDS011;57054;51.978;4.498;2023-02-08T07:08:00;10.98;;;8.93;;
69783;SDS011;57054;51.978;4.498;2023-02-08T07:10:26;13.13;;;9.38;;
69783;SDS011;57054;51.978;4.498;2023-02-08T07:12:51;13.32;;;9.50;;
69783;SDS011;57054;51.978;4.498;2023-02-08T07:15:17;13.25;;;9.13;;
69783;SDS011;57054;51.978;4.498;2023-02-08T07:17:42;12.00;;;9.13;;
69783;SDS011;57054;51.978;4.498;2023-02-08T07:20:08;13.02;;;9.02;;
69783;SDS011;57054;51.978;4.498;2023-02-08T07:22:35;15.52;;;9.27;;
69783;SDS011;57054;51.978;4.498;2023-02-08T07:25:01;14.23;;;9.48;;
69783;SDS011;57054;51.978;4.498;2023-02-08T07:27:27;14.20;;;9.20;;
69783;SDS011;57054;51.978;4.498;2023-02-08T07:29:52;13.68;;;9.32;;
69783;SDS011;57054;51.978;4.498;2023-02-08T07:32:18;11.63;;;8.55;;
69783;SDS011;57054;51.978;4.498;2023-02-08T07:34:43;12.48;;;8.82;;
69783;SDS011;57054;51.978;4.498;2023-02-08T07:37:09;12.32;;;8.77;;
69783;SDS011;57054;51.978;4.498;2023-02-08T07:39:35;11.48;;;8.52;;
69783;SDS011;57054;51.978;4.498;2023-02-08T07:42:00;13.70;;;9.20;;
69783;SDS011;57054;51.978;4.498;2023-02-08T07:44:25;14.25;;;10.40;;
69783;SDS011;57054;51.978;4.498;2023-02-08T07:46:51;14.25;;;9.60;;
69783;SDS011;57054;51.978;4.498;2023-02-08T07:49:16;11.82;;;9.43;;
69783;SDS011;57054;51.978;4.498;2023-02-08T07:51:41;12.75;;;9.35;;
69783;SDS011;57054;51.978;4.498;2023-02-08T07:54:07;15.98;;;10.05;;
69783;SDS011;57054;51.978;4.498;2023-02-08T07:56:32;10.70;;;8.77;;
69783;SDS011;57054;51.978;4.498;2023-02-08T07:58:58;14.07;;;9.68;;
69783;SDS011;57054;51.978;4.498;2023-02-08T08:01:23;12.45;;;9.15;;
69783;SDS011;57054;51.978;4.498;2023-02-08T08:03:49;11.80;;;9.00;;
69783;SDS011;57054;51.978;4.498;2023-02-08T08:06:16;12.77;;;8.93;;
69783;SDS011;57054;51.978;4.498;2023-02-08T08:08:42;17.30;;;9.52;;
69783;SDS011;57054;51.978;4.498;2023-02-08T08:11:11;11.88;;;8.88;;
69783;SDS011;57054;51.978;4.498;2023-02-08T08:13:37;14.55;;;9.52;;
69783;SDS011;57054;51.978;4.498;2023-02-08T08:16:03;11.20;;;9.25;;
69783;SDS011;57054;51.978;4.498;2023-02-08T08:18:28;14.55;;;9.13;;
69783;SDS011;57054;51.978;4.498;2023-02-08T08:20:55;12.48;;;9.23;;
69783;SDS011;57054;51.978;4.498;2023-02-08T08:23:21;15.40;;;11.13;;
69783;SDS011;57054;51.978;4.498;2023-02-08T08:25:46;12.30;;;9.68;;
69783;SDS011;57054;51.978;4.498;2023-02-08T08:28:11;13.00;;;9.90;;
69783;SDS011;57054;51.978;4.498;2023-02-08T08:30:37;16.52;;;10.23;;
69783;SDS011;57054;51.978;4.498;2023-02-08T08:33:02;17.58;;;10.57;;
69783;SDS011;57054;51.978;4.498;2023-02-08T08:35:28;15.65;;;10.55;;
69783;SDS011;57054;51.978;4.498;2023-02-08T08:37:53;18.08;;;10.48;;
69783;SDS011;57054;51.978;4.498;2023-02-08T08:40:19;15.57;;;10.07;;
69783;SDS011;57054;51.978;4.498;2023-02-08T08:42:44;15.32;;;10.25;;
69783;SDS011;57054;51.978;4.498;2023-02-08T08:45:10;16.63;;;10.80;;
69783;SDS011;57054;51.978;4.498;2023-02-08T08:47:35;14.27;;;9.98;;
69783;SDS011;57054;51.978;4.498;2023-02-08T08:50:00;15.07;;;10.52;;
69783;SDS011;57054;51.978;4.498;2023-02-08T08:52:26;15.10;;;10.18;;
69783;SDS011;57054;51.978;4.498;2023-02-08T08:54:52;14.13;;;10.32;;
69783;SDS011;57054;51.978;4.498;2023-02-08T08:57:17;18.15;;;11.43;;
69783;SDS011;57054;51.978;4.498;2023-02-08T08:59:42;16.73;;;10.95;;
69783;SDS011;57054;51.978;4.498;2023-02-08T09:02:14;17.40;;;11.65;;
69783;SDS011;57054;51.978;4.498;2023-02-08T09:04:40;19.17;;;12.00;;
69783;SDS011;57054;51.978;4.498;2023-02-08T09:07:06;18.95;;;12.40;;
69783;SDS011;57054;51.978;4.498;2023-02-08T09:09:32;17.13;;;11.05;;
69783;SDS011;57054;51.978;4.498;2023-02-08T09:11:57;19.55;;;12.40;;
69783;SDS011;57054;51.978;4.498;2023-02-08T09:14:23;16.10;;;11.27;;
69783;SDS011;57054;51.978;4.498;2023-02-08T09:16:48;16.00;;;10.65;;
69783;SDS011;57054;51.978;4.498;2023-02-08T09:19:14;14.77;;;11.20;;
69783;SDS011;57054;51.978;4.498;2023-02-08T09:21:40;19.85;;;11.40;;
69783;SDS011;57054;51.978;4.498;2023-02-08T09:24:06;15.88;;;10.75;;
69783;SDS011;57054;51.978;4.498;2023-02-08T09:26:31;18.15;;;11.77;;
69783;SDS011;57054;51.978;4.498;2023-02-08T09:28:58;17.27;;;11.15;;
69783;SDS011;57054;51.978;4.498;2023-02-08T09:31:24;14.48;;;11.10;;
69783;SDS011;57054;51.978;4.498;2023-02-08T09:33:52;21.17;;;12.15;;
69783;SDS011;57054;51.978;4.498;2023-02-08T09:36:19;13.52;;;10.77;;
69783;SDS011;57054;51.978;4.498;2023-02-08T09:38:46;13.70;;;10.77;;
69783;SDS011;57054;51.978;4.498;2023-02-08T09:46:39;19.60;;;11.73;;
69783;SDS011;57054;51.978;4.498;2023-02-08T09:49:12;16.63;;;11.75;;
69783;SDS011;57054;51.978;4.498;2023-02-08T09:52:08;16.23;;;11.38;;
69783;SDS011;57054;51.978;4.498;2023-02-08T09:54:40;16.52;;;11.75;;
69783;SDS011;57054;51.978;4.498;2023-02-08T09:57:15;18.73;;;12.77;;
69783;SDS011;57054;51.978;4.498;2023-02-08T09:59:50;17.45;;;12.60;;
69783;SDS011;57054;51.978;4.498;2023-02-08T10:02:25;20.33;;;13.02;;
69783;SDS011;57054;51.978;4.498;2023-02-08T10:05:14;17.65;;;12.18;;
69783;SDS011;57054;51.978;4.498;2023-02-08T10:07:45;19.77;;;12.73;;
69783;SDS011;57054;51.978;4.498;2023-02-08T10:10:15;21.80;;;13.98;;
69783;SDS011;57054;51.978;4.498;2023-02-08T10:15:48;19.85;;;12.55;;
69783;SDS011;57054;51.978;4.498;2023-02-08T10:21:33;18.80;;;12.63;;
69783;SDS011;57054;51.978;4.498;2023-02-08T10:29:49;18.02;;;12.18;;
69783;SDS011;57054;51.978;4.498;2023-02-08T10:32:26;22.15;;;11.93;;
69783;SDS011;57054;51.978;4.498;2023-02-08T10:35:01;20.48;;;12.13;;
69783;SDS011;57054;51.978;4.498;2023-02-08T10:37:39;17.15;;;11.57;;
69783;SDS011;57054;51.978;4.498;2023-02-08T10:43:14;18.52;;;12.30;;
69783;SDS011;57054;51.978;4.498;2023-02-08T10:48:14;21.45;;;11.40;;
69783;SDS011;57054;51.978;4.498;2023-02-08T10:50:46;17.35;;;13.15;;
69783;SDS011;57054;51.978;4.498;2023-02-08T10:53:13;18.15;;;12.27;;
69783;SDS011;57054;51.978;4.498;2023-02-08T10:55:41;14.07;;;10.60;;
69783;SDS011;57054;51.978;4.498;2023-02-08T11:00:41;14.52;;;10.23;;
69783;SDS011;57054;51.978;4.498;2023-02-08T11:03:21;23.10;;;13.45;;
69783;SDS011;57054;51.978;4.498;2023-02-08T11:05:52;13.60;;;9.82;;
69783;SDS011;57054;51.978;4.498;2023-02-08T11:08:19;13.10;;;8.95;;
69783;SDS011;57054;51.978;4.498;2023-02-08T11:13:38;15.40;;;10.93;;
69783;SDS011;57054;51.978;4.498;2023-02-08T11:16:09;11.75;;;8.80;;
69783;SDS011;57054;51.978;4.498;2023-02-08T11:21:24;13.50;;;9.80;;
69783;SDS011;57054;51.978;4.498;2023-02-08T11:23:54;16.33;;;11.18;;
69783;SDS011;57054;51.978;4.498;2023-02-08T11:26:23;18.73;;;11.27;;
69783;SDS011;57054;51.978;4.498;2023-02-08T11:31:27;15.68;;;11.10;;
69783;SDS011;57054;51.978;4.498;2023-02-08T11:34:00;14.25;;;10.32;;
69783;SDS011;57054;51.978;4.498;2023-02-08T11:36:28;14.98;;;10.32;;
69783;SDS011;57054;51.978;4.498;2023-02-08T11:38:55;12.40;;;9.32;;
69783;SDS011;57054;51.978;4.498;2023-02-08T11:41:22;13.98;;;9.90;;
69783;SDS011;57054;51.978;4.498;2023-02-08T11:43:58;15.68;;;9.73;;
69783;SDS011;57054;51.978;4.498;2023-02-08T11:46:26;16.13;;;9.32;;
69783;SDS011;57054;51.978;4.498;2023-02-08T11:48:53;15.88;;;9.63;;
69783;SDS011;57054;51.978;4.498;2023-02-08T11:51:27;16.27;;;8.98;;
69783;SDS011;57054;51.978;4.498;2023-02-08T11:53:56;11.30;;;8.93;;
69783;SDS011;57054;51.978;4.498;2023-02-08T11:56:25;11.02;;;8.55;;
69783;SDS011;57054;51.978;4.498;2023-02-08T12:01:31;12.73;;;8.43;;
69783;SDS011;57054;51.978;4.498;2023-02-08T12:04:03;12.65;;;8.32;;
69783;SDS011;57054;51.978;4.498;2023-02-08T12:17:19;12.93;;;8.68;;
69783;SDS011;57054;51.978;4.498;2023-02-08T12:22:57;8.73;;;7.20;;
69783;SDS011;57054;51.978;4.498;2023-02-08T12:28:41;8.75;;;7.30;;
69783;SDS011;57054;51.978;4.498;2023-02-08T12:36:26;8.15;;;6.93;;
69783;SDS011;57054;51.978;4.498;2023-02-08T12:39:19;9.75;;;7.07;;
69783;SDS011;57054;51.978;4.498;2023-02-08T12:50:10;8.55;;;6.60;;
69783;SDS011;57054;51.978;4.498;2023-02-08T12:55:38;9.20;;;6.82;;
69783;SDS011;57054;51.978;4.498;2023-02-08T12:58:17;11.00;;;7.53;;
69783;SDS011;57054;51.978;4.498;2023-02-08T13:00:52;10.50;;;7.32;;
69783;SDS011;57054;51.978;4.498;2023-02-08T13:06:28;9.15;;;6.93;;
69783;SDS011;57054;51.978;4.498;2023-02-08T13:17:27;7.20;;;5.90;;
69783;SDS011;57054;51.978;4.498;2023-02-08T13:20:02;8.90;;;6.57;;
69783;SDS011;57054;51.978;4.498;2023-02-08T13:22:40;8.73;;;6.85;;
69783;SDS011;57054;51.978;4.498;2023-02-08T13:25:14;15.93;;;6.95;;
69783;SDS011;57054;51.978;4.498;2023-02-08T13:28:04;7.90;;;7.00;;
69783;SDS011;57054;51.978;4.498;2023-02-08T13:30:33;8.95;;;6.63;;
69783;SDS011;57054;51.978;4.498;2023-02-08T13:33:12;7.57;;;6.80;;
69783;SDS011;57054;51.978;4.498;2023-02-08T13:35:42;9.20;;;6.75;;
69783;SDS011;57054;51.978;4.498;2023-02-08T13:38:30;6.93;;;6.00;;
69783;SDS011;57054;51.978;4.498;2023-02-08T13:43:40;7.18;;;6.47;;
69783;SDS011;57054;51.978;4.498;2023-02-08T13:46:11;7.07;;;6.37;;
69783;SDS011;57054;51.978;4.498;2023-02-08T13:48:47;8.88;;;6.35;;
69783;SDS011;57054;51.978;4.498;2023-02-08T14:04:49;9.50;;;6.53;;
69783;SDS011;57054;51.978;4.498;2023-02-08T14:10:09;9.10;;;6.30;;
69783;SDS011;57054;51.978;4.498;2023-02-08T14:13:18;9.20;;;6.15;;
69783;SDS011;57054;51.978;4.498;2023-02-08T14:18:52;7.75;;;6.40;;
69783;SDS011;57054;51.978;4.498;2023-02-08T14:21:26;11.07;;;7.03;;
69783;SDS011;57054;51.978;4.498;2023-02-08T14:24:06;10.18;;;6.78;;
69783;SDS011;57054;51.978;4.498;2023-02-08T14:26:50;12.68;;;6.32;;
69783;SDS011;57054;51.978;4.498;2023-02-08T14:31:54;9.05;;;6.30;;
69783;SDS011;57054;51.978;4.498;2023-02-08T14:34:28;9.07;;;6.13;;
69783;SDS011;57054;51.978;4.498;2023-02-08T14:37:01;10.93;;;6.80;;
69783;SDS011;57054;51.978;4.498;2023-02-08T14:39:31;9.90;;;7.07;;
69783;SDS011;57054;51.978;4.498;2023-02-08T14:42:05;12.52;;;6.78;;
69783;SDS011;57054;51.978;4.498;2023-02-08T14:49:39;8.15;;;6.57;;
69783;SDS011;57054;51.978;4.498;2023-02-08T14:52:11;10.02;;;6.15;;
69783;SDS011;57054;51.978;4.498;2023-02-08T14:54:44;9.32;;;6.00;;
69783;SDS011;57054;51.978;4.498;2023-02-08T14:57:28;7.50;;;5.80;;
69783;SDS011;57054;51.978;4.498;2023-02-08T14:59:58;9.15;;;6.43;;
69783;SDS011;57054;51.978;4.498;2023-02-08T15:02:26;8.63;;;6.30;;
69783;SDS011;57054;51.978;4.498;2023-02-08T15:04:56;8.93;;;6.72;;
69783;SDS011;57054;51.978;4.498;2023-02-08T15:07:40;8.38;;;6.10;;
69783;SDS011;57054;51.978;4.498;2023-02-08T15:10:15;6.72;;;5.15;;
69783;SDS011;57054;51.978;4.498;2023-02-08T15:12:43;7.90;;;5.75;;
69783;SDS011;57054;51.978;4.498;2023-02-08T15:15:32;6.63;;;5.43;;
69783;SDS011;57054;51.978;4.498;2023-02-08T15:18:01;11.43;;;5.65;;
69783;SDS011;57054;51.978;4.498;2023-02-08T15:20:30;6.73;;;5.03;;
69783;SDS011;57054;51.978;4.498;2023-02-08T15:25:43;6.75;;;6.05;;
69783;SDS011;57054;51.978;4.498;2023-02-08T15:28:18;10.65;;;5.35;;
69783;SDS011;57054;51.978;4.498;2023-02-08T15:30:51;7.03;;;5.50;;
69783;SDS011;57054;51.978;4.498;2023-02-08T15:33:29;4.50;;;4.03;;
69783;SDS011;57054;51.978;4.498;2023-02-08T15:38:25;9.73;;;5.38;;
69783;SDS011;57054;51.978;4.498;2023-02-08T15:41:05;6.47;;;5.15;;
69783;SDS011;57054;51.978;4.498;2023-02-08T15:43:32;4.40;;;4.05;;
69783;SDS011;57054;51.978;4.498;2023-02-08T15:45:59;5.30;;;4.53;;
69783;SDS011;57054;51.978;4.498;2023-02-08T15:48:27;4.70;;;4.25;;
69783;SDS011;57054;51.978;4.498;2023-02-08T15:50:53;5.68;;;4.88;;
69783;SDS011;57054;51.978;4.498;2023-02-08T15:53:20;6.63;;;5.72;;
69783;SDS011;57054;51.978;4.498;2023-02-08T15:55:52;6.38;;;5.78;;
69783;SDS011;57054;51.978;4.498;2023-02-08T15:58:26;6.82;;;5.45;;
69783;SDS011;57054;51.978;4.498;2023-02-08T16:00:56;5.53;;;4.90;;
69783;SDS011;57054;51.978;4.498;2023-02-08T16:03:25;7.45;;;5.25;;
69783;SDS011;57054;51.978;4.498;2023-02-08T16:05:59;4.90;;;4.47;;
69783;SDS011;57054;51.978;4.498;2023-02-08T16:08:29;7.57;;;4.88;;
69783;SDS011;57054;51.978;4.498;2023-02-08T16:11:07;5.70;;;5.05;;
69783;SDS011;57054;51.978;4.498;2023-02-08T16:13:38;5.15;;;4.65;;
69783;SDS011;57054;51.978;4.498;2023-02-08T16:16:14;7.28;;;5.30;;
69783;SDS011;57054;51.978;4.498;2023-02-08T16:19:20;5.70;;;5.20;;
69783;SDS011;57054;51.978;4.498;2023-02-08T16:21:47;6.13;;;5.53;;
69783;SDS011;57054;51.978;4.498;2023-02-08T16:26:41;5.78;;;5.22;;
69783;SDS011;57054;51.978;4.498;2023-02-08T16:29:19;6.18;;;5.55;;
69783;SDS011;57054;51.978;4.498;2023-02-08T16:31:54;7.85;;;5.50;;
69783;SDS011;57054;51.978;4.498;2023-02-08T16:34:32;7.00;;;6.30;;
69783;SDS011;57054;51.978;4.498;2023-02-08T16:36:59;7.22;;;6.38;;
69783;SDS011;57054;51.978;4.498;2023-02-08T16:39:37;7.50;;;6.47;;
69783;SDS011;57054;51.978;4.498;2023-02-08T16:50:20;7.38;;;6.38;;
69783;SDS011;57054;51.978;4.498;2023-02-08T16:52:55;7.88;;;7.03;;
69783;SDS011;57054;51.978;4.498;2023-02-08T16:55:25;8.95;;;7.63;;
69783;SDS011;57054;51.978;4.498;2023-02-08T16:57:53;8.15;;;6.90;;
69783;SDS011;57054;51.978;4.498;2023-02-08T17:00:21;8.85;;;7.78;;
69783;SDS011;57054;51.978;4.498;2023-02-08T17:02:52;9.30;;;7.22;;
69783;SDS011;57054;51.978;4.498;2023-02-08T17:05:19;8.63;;;7.63;;
69783;SDS011;57054;51.978;4.498;2023-02-08T17:07:46;9.85;;;7.53;;
69783;SDS011;57054;51.978;4.498;2023-02-08T17:10:22;12.73;;;7.95;;
69783;SDS011;57054;51.978;4.498;2023-02-08T17:12:51;10.52;;;7.80;;
69783;SDS011;57054;51.978;4.498;2023-02-08T17:15:17;9.50;;;7.85;;
69783;SDS011;57054;51.978;4.498;2023-02-08T17:17:45;14.27;;;8.52;;
69783;SDS011;57054;51.978;4.498;2023-02-08T17:20:21;10.68;;;8.70;;
69783;SDS011;57054;51.978;4.498;2023-02-08T17:22:50;8.65;;;7.45;;
69783;SDS011;57054;51.978;4.498;2023-02-08T17:25:16;9.07;;;7.65;;
69783;SDS011;57054;51.978;4.498;2023-02-08T17:27:47;9.80;;;7.80;;
69783;SDS011;57054;51.978;4.498;2023-02-08T17:30:22;11.18;;;8.02;;
69783;SDS011;57054;51.978;4.498;2023-02-08T17:32:50;11.10;;;7.47;;